createdAt,value
2018-01-29T00:00:36.015Z,63.14
2018-01-29T00:03:05.448Z,61.29
2018-01-29T00:05:34.838Z,61.61
2018-01-29T00:08:04.428Z,62.13
2018-01-29T00:10:33.948Z,62.90
2018-01-29T00:13:03.618Z,63.02
2018-01-29T00:15:33.009Z,63.00
2018-01-29T00:18:02.478Z,63.14
2018-01-29T00:20:32.960Z,63.21
2018-01-29T00:23:02.338Z,63.14
2018-01-29T00:25:31.731Z,63.16
2018-01-29T00:28:01.711Z,63.03
2018-01-29T00:30:31.147Z,62.72
2018-01-29T00:33:00.894Z,61.71
2018-01-29T00:35:30.193Z,61.45
2018-01-29T00:37:59.493Z,61.79
2018-01-29T00:40:28.958Z,62.17
2018-01-29T00:42:59.442Z,62.41
2018-01-29T00:45:29.649Z,62.79
2018-01-29T00:47:59.345Z,61.45
2018-01-29T00:50:28.611Z,60.72
2018-01-29T00:52:58.040Z,61.80
2018-01-29T00:55:27.525Z,63.10
2018-01-29T00:57:56.914Z,62.89
2018-01-29T01:00:27.178Z,61.95
2018-01-29T01:02:56.681Z,61.99
2018-01-29T01:05:26.890Z,61.95
2018-01-29T01:08:00.118Z,61.69
2018-01-29T01:10:29.628Z,62.24
2018-01-29T01:12:59.152Z,63.88
2018-01-29T01:15:29.200Z,62.86
2018-01-29T01:17:58.760Z,63.24
2018-01-29T01:20:28.484Z,63.07
2018-01-29T01:22:57.888Z,64.12
2018-01-29T01:25:27.516Z,62.97
2018-01-29T01:27:57.199Z,63.41
2018-01-29T01:30:26.622Z,65.67
2018-01-29T01:32:55.993Z,66.02
2018-01-29T01:35:25.381Z,65.96
2018-01-29T01:37:55.635Z,65.18
2018-01-29T01:40:25.134Z,65.07
2018-01-29T01:42:54.479Z,66.17
2018-01-29T01:45:25.017Z,66.88
2018-01-29T01:47:54.312Z,66.80
2018-01-29T01:50:23.789Z,64.17
2018-01-29T01:52:53.152Z,64.27
2018-01-29T01:55:23.274Z,65.32
2018-01-29T01:57:53.794Z,66.40
2018-01-29T02:00:24.177Z,64.72
2018-01-29T02:02:54.272Z,64.11
2018-01-29T02:05:23.630Z,63.27
2018-01-29T02:07:52.881Z,63.10
2018-01-29T02:10:22.528Z,64.46
2018-01-29T02:12:52.723Z,65.02
2018-01-29T02:15:22.541Z,64.30
2018-01-29T02:17:51.931Z,67.08
2018-01-29T02:20:21.275Z,66.51
2018-01-29T02:22:50.864Z,67.73
2018-01-29T02:25:20.310Z,66.52
2018-01-29T02:27:49.690Z,65.58
2018-01-29T02:30:19.235Z,66.92
2018-01-29T02:32:48.995Z,65.66
2018-01-29T02:35:18.290Z,65.52
2018-01-29T02:37:48.247Z,67.39
2018-01-29T02:40:17.834Z,66.62
2018-01-29T02:42:47.120Z,65.10
2018-01-29T02:45:16.460Z,66.92
2018-01-29T02:47:46.306Z,67.73
2018-01-29T02:50:15.708Z,66.96
2018-01-29T02:52:45.534Z,66.73
2018-01-29T02:55:15.194Z,65.35
2018-01-29T02:57:44.875Z,63.94
2018-01-29T03:00:14.224Z,66.13
2018-01-29T03:02:43.523Z,67.65
2018-01-29T03:05:12.903Z,66.97
2018-01-29T03:07:42.467Z,66.70
2018-01-29T03:10:12.303Z,67.67
2018-01-29T03:12:41.859Z,67.70
2018-01-29T03:15:11.261Z,67.31
2018-01-29T03:17:41.578Z,66.92
2018-01-29T03:20:11.018Z,67.60
2018-01-29T03:22:40.837Z,69.25
2018-01-29T03:25:11.266Z,68.26
2018-01-29T03:27:41.321Z,67.20
2018-01-29T03:30:10.980Z,65.75
2018-01-29T03:32:41.364Z,66.95
2018-01-29T03:35:10.810Z,68.04
2018-01-29T03:37:40.252Z,67.17
2018-01-29T03:40:09.665Z,66.68
2018-01-29T03:42:39.240Z,67.91
2018-01-29T03:45:08.608Z,67.06
2018-01-29T03:47:38.135Z,65.89
2018-01-29T03:50:07.733Z,65.57
2018-01-29T03:52:37.164Z,67.96
2018-01-29T03:55:06.576Z,67.85
2018-01-29T03:57:36.356Z,66.29
2018-01-29T04:00:06.372Z,67.38
2018-01-29T04:02:35.789Z,67.41
2018-01-29T04:05:05.331Z,66.18
2018-01-29T04:07:34.959Z,68.76
2018-01-29T04:10:04.380Z,69.85
2018-01-29T04:12:34.499Z,67.49
2018-01-29T04:15:04.006Z,67.62
2018-01-29T04:17:33.494Z,66.84
2018-01-29T04:20:02.912Z,67.91
2018-01-29T04:22:32.472Z,68.23
2018-01-29T04:25:02.247Z,69.24
2018-01-29T04:27:31.752Z,67.69
2018-01-29T04:30:01.598Z,68.02
2018-01-29T04:32:31.262Z,69.41
2018-01-29T04:35:01.002Z,68.25
2018-01-29T04:37:30.780Z,67.91
2018-01-29T04:40:00.218Z,69.43
2018-01-29T04:42:30.070Z,68.47
2018-01-29T04:44:59.870Z,66.85
2018-01-29T04:47:29.740Z,69.31
2018-01-29T04:49:59.325Z,69.06
2018-01-29T04:52:29.788Z,69.71
2018-01-29T04:54:59.743Z,68.95
2018-01-29T05:00:10.367Z,69.34
2018-01-29T05:02:40.314Z,69.39
2018-01-29T05:05:09.753Z,68.76
2018-01-29T05:07:39.174Z,67.88
2018-01-29T05:10:08.579Z,68.14
2018-01-29T05:12:38.183Z,67.24
2018-01-29T05:15:07.553Z,64.01
2018-01-29T05:17:36.896Z,66.39
2018-01-29T05:20:29.928Z,69.34
2018-01-29T05:22:59.257Z,71.13
2018-01-29T05:25:28.604Z,71.11
2018-01-29T05:27:57.908Z,71.50
2018-01-29T05:30:27.309Z,70.79
2018-01-29T05:32:56.690Z,70.59
2018-01-29T05:35:44.415Z,69.55
2018-01-29T05:38:13.953Z,71.08
2018-01-29T05:40:44.146Z,71.06
2018-01-29T05:43:14.312Z,71.32
2018-01-29T05:45:43.782Z,70.53
2018-01-29T05:48:13.174Z,69.79
2018-01-29T05:50:42.594Z,70.31
2018-01-29T05:53:12.190Z,70.81
2018-01-29T05:55:41.657Z,70.66
2018-01-29T05:58:12.591Z,70.75
2018-01-29T06:00:42.747Z,70.81
2018-01-29T06:03:12.185Z,70.97
2018-01-29T06:05:41.811Z,70.85
2018-01-29T06:08:11.194Z,70.95
2018-01-29T06:10:40.484Z,71.43
2018-01-29T06:13:09.884Z,70.82
2018-01-29T06:15:39.452Z,69.21
2018-01-29T06:18:08.902Z,68.06
2018-01-29T06:20:38.284Z,68.94
2018-01-29T06:23:07.987Z,68.04
2018-01-29T06:25:37.695Z,68.96
2018-01-29T06:28:07.941Z,69.38
2018-01-29T06:30:37.251Z,68.26
2018-01-29T06:33:07.377Z,67.34
2018-01-29T06:35:36.895Z,66.20
2018-01-29T06:38:06.647Z,66.99
2018-01-29T06:40:36.888Z,67.59
2018-01-29T06:43:06.256Z,68.12
2018-01-29T06:45:35.923Z,68.93
2018-01-29T06:48:06.031Z,69.99
2018-01-29T06:50:35.498Z,69.98
2018-01-29T06:53:05.240Z,69.78
2018-01-29T06:55:34.909Z,70.40
2018-01-29T06:58:04.992Z,70.69
2018-01-29T07:00:34.534Z,69.90
2018-01-29T07:03:05.011Z,69.16
2018-01-29T07:05:41.499Z,68.43
2018-01-29T07:08:11.245Z,67.50
2018-01-29T07:10:40.742Z,67.72
2018-01-29T07:13:10.306Z,67.06
2018-01-29T07:15:39.823Z,66.50
2018-01-29T07:18:09.333Z,66.95
2018-01-29T07:20:40.640Z,67.41
2018-01-29T07:23:10.043Z,69.01
2018-01-29T07:25:39.564Z,67.91
2018-01-29T07:28:09.140Z,66.68
2018-01-29T07:30:39.357Z,66.41
2018-01-29T07:33:08.965Z,66.13
2018-01-29T07:35:39.450Z,64.45
2018-01-29T07:38:09.024Z,64.12
2018-01-29T07:40:38.469Z,64.40
2018-01-29T07:43:07.915Z,64.22
2018-01-29T07:45:38.522Z,64.44
2018-01-29T07:48:08.429Z,64.33
2018-01-29T07:50:38.273Z,63.26
2018-01-29T07:53:08.088Z,62.43
2018-01-29T07:55:38.156Z,62.80
2018-01-29T07:58:08.336Z,62.60
2018-01-29T08:00:38.130Z,62.72
2018-01-29T08:03:08.995Z,62.62
2018-01-29T08:05:39.219Z,61.28
2018-01-29T08:08:09.172Z,61.47
2018-01-29T08:10:38.717Z,60.17
2018-01-29T08:13:08.520Z,60.27
2018-01-29T08:15:38.513Z,60.26
2018-01-29T08:18:08.833Z,59.35
2018-01-29T08:20:38.477Z,58.47
2018-01-29T08:23:08.021Z,58.48
2018-01-29T08:25:37.418Z,58.60
2018-01-29T08:28:07.254Z,58.76
2018-01-29T08:30:36.937Z,58.12
2018-01-29T08:33:06.456Z,58.61
2018-01-29T08:35:36.126Z,59.60
2018-01-29T08:38:05.771Z,58.47
2018-01-29T08:40:35.378Z,58.66
2018-01-29T08:43:04.889Z,57.43
2018-01-29T08:45:34.650Z,57.64
2018-01-29T08:48:04.242Z,56.49
2018-01-29T08:50:34.661Z,55.77
2018-01-29T08:53:04.290Z,56.25
2018-01-29T08:55:33.957Z,55.95
2018-01-29T08:58:03.652Z,55.85
2018-01-29T09:00:33.555Z,55.84
2018-01-29T09:03:03.246Z,55.80
2018-01-29T09:05:34.035Z,55.88
2018-01-29T09:08:03.802Z,54.13
2018-01-29T09:10:33.233Z,54.85
2018-01-29T09:13:03.398Z,54.46
2018-01-29T09:15:33.317Z,54.77
2018-01-29T09:18:02.896Z,54.20
2018-01-29T09:20:32.736Z,53.96
2018-01-29T09:23:02.793Z,54.95
2018-01-29T09:25:32.738Z,54.52
2018-01-29T09:28:03.158Z,53.15
2018-01-29T09:30:32.548Z,52.79
2018-01-29T09:33:02.528Z,52.25
2018-01-29T09:35:32.846Z,53.44
2018-01-29T09:38:02.550Z,52.81
2018-01-29T09:40:32.210Z,51.52
2018-01-29T09:43:01.955Z,52.50
2018-01-29T09:45:31.550Z,52.12
2018-01-29T09:48:02.247Z,51.42
2018-01-29T09:50:32.817Z,50.53
2018-01-29T09:53:02.465Z,50.79
2018-01-29T09:55:32.817Z,50.16
2018-01-29T09:58:02.440Z,49.99
2018-01-29T10:00:33.276Z,50.82
2018-01-29T10:03:03.049Z,49.95
2018-01-29T10:05:32.970Z,48.45
2018-01-29T10:08:02.541Z,47.76
2018-01-29T10:10:32.368Z,48.94
2018-01-29T10:13:02.101Z,48.31
2018-01-29T10:15:31.911Z,47.15
2018-01-29T10:18:01.640Z,46.37
2018-01-29T10:20:31.791Z,47.76
2018-01-29T10:23:01.494Z,46.35
2018-01-29T10:25:31.459Z,46.67
2018-01-29T10:28:01.644Z,46.88
2018-01-29T10:30:32.218Z,47.18
2018-01-29T10:33:02.665Z,47.15
2018-01-29T10:35:33.958Z,46.03
2018-01-29T10:38:04.466Z,44.11
2018-01-29T10:40:34.219Z,44.00
2018-01-29T10:43:04.317Z,45.05
2018-01-29T10:45:34.688Z,44.33
2018-01-29T10:48:04.474Z,43.81
2018-01-29T10:50:34.193Z,43.25
2018-01-29T10:53:04.693Z,43.80
2018-01-29T10:55:34.802Z,42.27
2018-01-29T10:58:04.682Z,43.01
2018-01-29T11:00:39.868Z,42.35
2018-01-29T11:03:09.391Z,41.82
2018-01-29T11:05:40.287Z,41.49
2018-01-29T11:08:10.035Z,41.98
2018-01-29T11:10:39.759Z,41.83
2018-01-29T11:13:09.553Z,41.74
2018-01-29T11:18:15.891Z,40.66
2018-01-29T11:20:45.455Z,38.71
2018-01-29T11:23:15.294Z,40.39
2018-01-29T11:25:45.259Z,39.89
2018-01-29T11:28:14.838Z,40.96
2018-01-29T11:30:44.893Z,41.37
2018-01-29T11:33:15.777Z,39.21
2018-01-29T11:35:45.628Z,39.64
2018-01-29T11:38:15.426Z,37.59
2018-01-29T11:40:46.068Z,36.59
2018-01-29T11:43:15.690Z,37.63
2018-01-29T11:45:45.332Z,38.26
2018-01-29T11:48:15.950Z,36.18
2018-01-29T11:50:45.521Z,37.05
2018-01-29T11:53:15.171Z,36.39
2018-01-29T11:55:45.549Z,35.37
2018-01-29T11:58:15.042Z,36.22
2018-01-29T12:00:46.325Z,37.27
2018-01-29T12:03:16.038Z,35.20
2018-01-29T12:05:45.848Z,34.62
2018-01-29T12:08:15.760Z,35.42
2018-01-29T12:10:45.477Z,34.78
2018-01-29T12:13:16.097Z,34.66
2018-01-29T12:15:46.782Z,33.31
2018-01-29T12:18:17.218Z,33.62
2018-01-29T12:20:47.942Z,34.33
2018-01-29T12:23:18.262Z,34.66
2018-01-29T12:25:48.233Z,33.27
2018-01-29T12:28:18.137Z,33.14
2018-01-29T12:30:48.143Z,33.46
2018-01-29T12:33:18.103Z,34.08
2018-01-29T12:35:48.300Z,32.12
2018-01-29T12:38:18.363Z,31.95
2018-01-29T12:40:48.054Z,31.73
2018-01-29T12:43:17.535Z,32.41
2018-01-29T12:45:47.355Z,32.95
2018-01-29T12:48:17.528Z,31.82
2018-01-29T12:50:47.455Z,31.65
2018-01-29T12:53:17.377Z,31.37
2018-01-29T12:55:47.024Z,31.93
2018-01-29T12:58:16.550Z,32.00
2018-01-29T13:00:47.078Z,30.69
2018-01-29T13:03:17.083Z,29.85
2018-01-29T13:05:46.896Z,30.62
2018-01-29T13:08:17.275Z,31.77
2018-01-29T13:10:47.688Z,31.42
2018-01-29T13:13:17.200Z,30.33
2018-01-29T13:15:47.540Z,29.81
2018-01-29T13:18:17.929Z,30.45
2018-01-29T13:20:47.759Z,31.22
2018-01-29T13:23:17.456Z,30.83
2018-01-29T13:25:47.330Z,30.42
2018-01-29T13:28:18.479Z,30.43
2018-01-29T13:30:48.742Z,30.35
2018-01-29T13:33:18.824Z,30.73
2018-01-29T13:35:49.156Z,31.01
2018-01-29T13:38:18.897Z,30.16
2018-01-29T13:40:48.834Z,30.23
2018-01-29T13:43:18.409Z,30.95
2018-01-29T13:45:48.338Z,31.72
2018-01-29T13:48:17.836Z,32.38
2018-01-29T13:50:47.494Z,32.86
2018-01-29T13:53:18.222Z,32.30
2018-01-29T13:55:48.153Z,31.26
2018-01-29T13:58:17.669Z,31.38
2018-01-29T14:00:48.199Z,30.98
2018-01-29T14:03:18.142Z,31.56
2018-01-29T14:05:49.100Z,31.25
2018-01-29T14:08:18.688Z,31.13
2018-01-29T14:10:49.077Z,31.39
2018-01-29T14:13:18.532Z,30.93
2018-01-29T14:15:48.672Z,30.97
2018-01-29T14:18:18.503Z,31.57
2018-01-29T14:20:48.805Z,31.15
2018-01-29T14:23:18.946Z,31.73
2018-01-29T14:25:49.396Z,30.03
2018-01-29T14:28:19.427Z,31.36
2018-01-29T14:30:48.951Z,32.46
2018-01-29T14:33:19.213Z,32.51
2018-01-29T14:35:48.935Z,32.26
2018-01-29T14:38:18.939Z,31.71
2018-01-29T14:40:48.845Z,32.96
2018-01-29T14:43:18.515Z,32.58
2018-01-29T14:45:48.157Z,32.26
2018-01-29T14:48:17.928Z,32.48
2018-01-29T14:50:48.217Z,33.50
2018-01-29T14:53:18.578Z,33.74
2018-01-29T14:55:48.100Z,33.03
2018-01-29T14:58:17.729Z,33.07
2018-01-29T15:00:47.895Z,33.49
2018-01-29T15:03:17.704Z,33.56
2018-01-29T15:05:48.271Z,33.98
2018-01-29T15:08:18.177Z,34.47
2018-01-29T15:10:49.002Z,35.01
2018-01-29T15:13:19.009Z,35.51
2018-01-29T15:15:48.771Z,35.84
2018-01-29T15:18:18.303Z,36.19
2018-01-29T15:20:48.112Z,37.25
2018-01-29T15:23:17.825Z,38.11
2018-01-29T15:25:48.148Z,38.34
2018-01-29T15:28:20.791Z,38.80
2018-01-29T15:30:51.304Z,38.83
2018-01-29T15:33:21.163Z,39.14
2018-01-29T15:35:51.664Z,39.75
2018-01-29T15:38:21.437Z,40.00
2018-01-29T15:40:51.219Z,40.59
2018-01-29T15:43:24.881Z,40.63
2018-01-29T15:45:56.006Z,40.78
2018-01-29T15:48:25.672Z,41.44
2018-01-29T15:50:55.147Z,41.89
2018-01-29T15:53:24.973Z,42.64
2018-01-29T15:55:54.535Z,42.95
2018-01-29T15:58:24.807Z,42.51
2018-01-29T16:00:54.921Z,43.36
2018-01-29T16:03:25.015Z,43.92
2018-01-29T16:05:55.359Z,44.21
2018-01-29T16:08:24.998Z,44.17
2018-01-29T16:10:55.230Z,44.74
2018-01-29T16:13:25.047Z,44.85
2018-01-29T16:15:54.658Z,45.18
2018-01-29T16:18:24.894Z,45.53
2018-01-29T16:20:54.366Z,45.84
2018-01-29T16:23:24.744Z,45.61
2018-01-29T16:26:02.527Z,45.63
2018-01-29T16:28:33.024Z,45.79
2018-01-29T16:31:03.156Z,46.14
2018-01-29T16:33:34.735Z,45.42
2018-01-29T16:36:08.295Z,45.73
2018-01-29T16:38:44.319Z,46.82
2018-01-29T16:41:14.644Z,46.83
2018-01-29T16:43:44.399Z,48.18
2018-01-29T16:46:13.942Z,48.77
2018-01-29T16:48:43.476Z,48.83
2018-01-29T16:51:12.976Z,49.14
2018-01-29T16:53:42.939Z,49.14
2018-01-29T16:56:12.720Z,48.41
2018-01-29T16:58:42.727Z,48.55
2018-01-29T17:01:12.340Z,49.32
2018-01-29T17:03:43.019Z,50.20
2018-01-29T17:06:12.536Z,52.48
2018-01-29T17:08:42.044Z,51.21
2018-01-29T17:11:12.545Z,51.66
2018-01-29T17:13:42.081Z,50.91
2018-01-29T17:16:11.592Z,52.40
2018-01-29T17:18:41.105Z,51.96
2018-01-29T17:21:10.859Z,50.45
2018-01-29T17:23:42.323Z,50.39
2018-01-29T17:26:12.095Z,50.84
2018-01-29T17:28:42.001Z,51.22
2018-01-29T17:31:12.017Z,51.89
2018-01-29T17:33:41.428Z,52.07
2018-01-29T17:36:11.135Z,53.33
2018-01-29T17:38:41.097Z,52.92
2018-01-29T17:41:10.979Z,53.68
2018-01-29T17:43:40.969Z,54.68
2018-01-29T17:46:11.095Z,53.48
2018-01-29T17:48:41.675Z,53.11
2018-01-29T17:51:12.115Z,51.81
2018-01-29T17:53:42.757Z,53.45
2018-01-29T17:56:12.432Z,54.45
2018-01-29T17:58:42.165Z,53.44
2018-01-29T18:01:13.081Z,53.03
2018-01-29T18:03:42.899Z,53.97
2018-01-29T18:06:12.817Z,53.82
2018-01-29T18:08:42.778Z,54.60
2018-01-29T18:11:12.527Z,55.50
2018-01-29T18:13:42.047Z,54.12
2018-01-29T18:16:11.837Z,55.02
2018-01-29T18:18:42.036Z,55.65
2018-01-29T18:21:12.427Z,56.19
2018-01-29T18:23:42.065Z,55.80
2018-01-29T18:26:12.544Z,54.90
2018-01-29T18:28:42.109Z,55.40
2018-01-29T18:31:12.318Z,55.53
2018-01-29T18:33:41.814Z,55.29
2018-01-29T18:36:11.577Z,56.33
2018-01-29T18:38:41.230Z,56.27
2018-01-29T18:41:10.748Z,56.41
2018-01-29T18:43:40.413Z,57.50
2018-01-29T18:46:10.013Z,57.42
2018-01-29T18:48:39.446Z,59.05
2018-01-29T18:51:09.064Z,58.99
2018-01-29T18:53:41.007Z,58.49
2018-01-29T18:56:11.712Z,59.07
2018-01-29T18:58:41.552Z,57.98
2018-01-29T19:01:11.308Z,57.56
2018-01-29T19:03:41.364Z,57.30
2018-01-29T19:06:11.050Z,58.03
2018-01-29T19:08:41.225Z,56.46
2018-01-29T19:11:11.760Z,56.50
2018-01-29T19:40:58.627Z,59.88
